This is the latest recevied weather packets stored in our database for station/object HARMAJA. If no packets are shown the sender has not sent any weather packets the latest 10 day(s).
| Time | Temp. | Humidity | Pressure | Rain* | Wind** | Luminosity | Snow |
|---|---|---|---|---|---|---|---|
| 1777606016 | 6.67° C | 85% | 1021.2 hPa | - | - | - | - |
| 1777604815 | 6.67° C | 86% | 1021.1 hPa | - | - | - | - |
| 1777603616 | 6.11° C | 87% | 1021.2 hPa | - | - | - | - |
| 1777602415 | 6.67° C | 86% | 1021.2 hPa | - | - | - | - |
| 1777583214 | 8.89° C | 75% | 1020.6 hPa | - | - | - | - |
| 1777580814 | 8.89° C | 76% | 1020.6 hPa | - | - | - | - |
| 1777579614 | 9.44° C | 77% | 1020.4 hPa | - | - | - | - |
| 1777561613 | 6.11° C | 87% | 1020.1 hPa | - | - | - | - |
| 1777554412 | 6.67° C | 86% | 1020.6 hPa | - | - | - | - |
| 1777550812 | 6.11° C | 89% | 1021.1 hPa | - | - | - | - |
| 1777544812 | 5.56° C | 89% | 1021.4 hPa | - | - | - | - |
| 1777543612 | 5.56° C | 89% | 1021.4 hPa | - | - | - | - |
| 1777542412 | 5.56° C | 89% | 1021.6 hPa | - | - | - | - |
| 1777541212 | 5.56° C | 90% | 1021.4 hPa | - | - | - | - |
| 1777540012 | 5.56° C | 91% | 1021.5 hPa | - | - | - | - |
| 1777538812 | 5° C | 92% | 1021.7 hPa | - | - | - | - |
| 1777537612 | 5° C | 93% | 1021.8 hPa | - | - | - | - |
| 1777536412 | 5° C | 91% | 1021.8 hPa | - | - | - | - |
| 1777534011 | 5° C | 88% | 1022 hPa | - | - | - | - |
| 1777532811 | 5° C | 86% | 1021.9 hPa | - | - | - | - |
| 1777530411 | 5° C | 84% | 1021.8 hPa | - | - | - | - |
| 1777529211 | 4.44° C | 82% | 1021.8 hPa | - | - | - | - |
| 1777528011 | 4.44° C | 80% | 1022.1 hPa | - | - | - | - |
| 1777526811 | 4.44° C | 78% | 1022.1 hPa | - | - | - | - |
| 1777525611 | 4.44° C | 78% | 1022.2 hPa | - | - | - | - |
* Rain since midnight (hover to see other rain measurements)
** Current wind speed in m/s (hover to see current wind gust speed)